sensor_id;sensor_type;location;lat;lon;timestamp;temperature;humidity
37794;DHT22;23632;48.826;15.176;2023-03-29T00:02:25;15.80;63.50
37794;DHT22;23632;48.826;15.176;2023-03-29T00:04:59;15.80;63.50
37794;DHT22;23632;48.826;15.176;2023-03-29T00:07:30;15.80;63.60
37794;DHT22;23632;48.826;15.176;2023-03-29T00:10:00;15.80;63.50
37794;DHT22;23632;48.826;15.176;2023-03-29T00:12:28;15.80;63.50
37794;DHT22;23632;48.826;15.176;2023-03-29T00:14:55;15.70;63.50
37794;DHT22;23632;48.826;15.176;2023-03-29T00:17:22;15.80;63.50
37794;DHT22;23632;48.826;15.176;2023-03-29T00:19:50;15.70;63.40
37794;DHT22;23632;48.826;15.176;2023-03-29T00:22:17;15.70;63.50
37794;DHT22;23632;48.826;15.176;2023-03-29T00:24:44;15.70;63.50
37794;DHT22;23632;48.826;15.176;2023-03-29T00:27:16;15.70;63.50
37794;DHT22;23632;48.826;15.176;2023-03-29T00:29:43;15.70;63.50
37794;DHT22;23632;48.826;15.176;2023-03-29T00:32:10;15.70;63.50
37794;DHT22;23632;48.826;15.176;2023-03-29T00:34:37;15.70;63.50
37794;DHT22;23632;48.826;15.176;2023-03-29T00:37:04;15.70;63.50
37794;DHT22;23632;48.826;15.176;2023-03-29T00:39:35;15.70;63.60
37794;DHT22;23632;48.826;15.176;2023-03-29T00:42:03;15.70;63.60
37794;DHT22;23632;48.826;15.176;2023-03-29T00:53:24;15.60;63.70
37794;DHT22;23632;48.826;15.176;2023-03-29T01:02:19;15.60;63.70
37794;DHT22;23632;48.826;15.176;2023-03-29T01:04:41;15.60;63.70
37794;DHT22;23632;48.826;15.176;2023-03-29T01:07:22;15.60;63.60
37794;DHT22;23632;48.826;15.176;2023-03-29T01:09:59;15.60;63.80
37794;DHT22;23632;48.826;15.176;2023-03-29T01:12:33;15.60;63.80
37794;DHT22;23632;48.826;15.176;2023-03-29T01:15:05;15.60;63.80
37794;DHT22;23632;48.826;15.176;2023-03-29T01:17:37;15.50;63.70
37794;DHT22;23632;48.826;15.176;2023-03-29T01:20:20;15.50;63.70
37794;DHT22;23632;48.826;15.176;2023-03-29T01:22:59;15.50;63.80
37794;DHT22;23632;48.826;15.176;2023-03-29T01:25:37;15.50;63.70
37794;DHT22;23632;48.826;15.176;2023-03-29T01:28:44;15.50;63.80
37794;DHT22;23632;48.826;15.176;2023-03-29T01:31:22;15.50;63.80
37794;DHT22;23632;48.826;15.176;2023-03-29T01:33:57;15.50;63.80
37794;DHT22;23632;48.826;15.176;2023-03-29T01:36:36;15.50;64.70
37794;DHT22;23632;48.826;15.176;2023-03-29T01:39:07;15.50;63.80
37794;DHT22;23632;48.826;15.176;2023-03-29T01:48:13;15.50;63.80
37794;DHT22;23632;48.826;15.176;2023-03-29T01:51:02;15.40;63.80
37794;DHT22;23632;48.826;15.176;2023-03-29T01:53:41;15.50;63.80
37794;DHT22;23632;48.826;15.176;2023-03-29T01:56:16;15.40;63.80
37794;DHT22;23632;48.826;15.176;2023-03-29T01:58:52;15.40;64.80
37794;DHT22;23632;48.826;15.176;2023-03-29T02:01:26;15.40;63.80
37794;DHT22;23632;48.826;15.176;2023-03-29T02:03:59;15.40;63.80
37794;DHT22;23632;48.826;15.176;2023-03-29T02:06:32;15.40;63.90
37794;DHT22;23632;48.826;15.176;2023-03-29T02:09:00;15.40;63.90
37794;DHT22;23632;48.826;15.176;2023-03-29T02:11:27;15.40;63.90
37794;DHT22;23632;48.826;15.176;2023-03-29T02:13:56;15.40;63.90
37794;DHT22;23632;48.826;15.176;2023-03-29T02:16:23;15.40;63.90
37794;DHT22;23632;48.826;15.176;2023-03-29T02:18:51;15.40;63.90
37794;DHT22;23632;48.826;15.176;2023-03-29T02:24:31;15.40;63.90
37794;DHT22;23632;48.826;15.176;2023-03-29T02:26:59;15.40;63.90
37794;DHT22;23632;48.826;15.176;2023-03-29T02:29:27;15.40;64.80
37794;DHT22;23632;48.826;15.176;2023-03-29T02:32:27;15.40;63.90
37794;DHT22;23632;48.826;15.176;2023-03-29T02:35:12;15.30;63.90
37794;DHT22;23632;48.826;15.176;2023-03-29T02:37:44;15.30;63.90
37794;DHT22;23632;48.826;15.176;2023-03-29T02:40:15;15.40;63.90
37794;DHT22;23632;48.826;15.176;2023-03-29T02:42:44;15.30;63.90
37794;DHT22;23632;48.826;15.176;2023-03-29T02:45:14;15.30;63.90
37794;DHT22;23632;48.826;15.176;2023-03-29T02:47:49;15.30;63.90
37794;DHT22;23632;48.826;15.176;2023-03-29T02:50:19;15.30;63.90
37794;DHT22;23632;48.826;15.176;2023-03-29T02:52:52;15.30;63.90
37794;DHT22;23632;48.826;15.176;2023-03-29T02:55:23;15.30;64.00
37794;DHT22;23632;48.826;15.176;2023-03-29T02:57:52;15.30;63.90
37794;DHT22;23632;48.826;15.176;2023-03-29T03:00:19;15.30;63.90
37794;DHT22;23632;48.826;15.176;2023-03-29T03:02:46;15.30;64.00
37794;DHT22;23632;48.826;15.176;2023-03-29T03:05:14;15.30;63.90
37794;DHT22;23632;48.826;15.176;2023-03-29T03:07:41;15.30;63.90
37794;DHT22;23632;48.826;15.176;2023-03-29T03:10:09;15.30;63.90
37794;DHT22;23632;48.826;15.176;2023-03-29T03:12:37;15.30;64.00
37794;DHT22;23632;48.826;15.176;2023-03-29T03:15:05;15.30;63.90
37794;DHT22;23632;48.826;15.176;2023-03-29T03:17:36;15.30;64.00
37794;DHT22;23632;48.826;15.176;2023-03-29T03:20:10;15.40;64.10
37794;DHT22;23632;48.826;15.176;2023-03-29T03:22:42;15.20;63.90
37794;DHT22;23632;48.826;15.176;2023-03-29T03:25:16;15.20;63.90
37794;DHT22;23632;48.826;15.176;2023-03-29T03:27:47;15.20;63.90
37794;DHT22;23632;48.826;15.176;2023-03-29T03:30:16;15.30;64.00
37794;DHT22;23632;48.826;15.176;2023-03-29T03:33:03;15.30;64.10
37794;DHT22;23632;48.826;15.176;2023-03-29T03:35:59;15.20;63.90
37794;DHT22;23632;48.826;15.176;2023-03-29T03:38:35;15.30;64.00
37794;DHT22;23632;48.826;15.176;2023-03-29T03:41:04;15.20;63.90
37794;DHT22;23632;48.826;15.176;2023-03-29T03:43:33;15.20;63.90
37794;DHT22;23632;48.826;15.176;2023-03-29T03:46:01;15.20;64.00
37794;DHT22;23632;48.826;15.176;2023-03-29T03:48:29;15.30;64.00
37794;DHT22;23632;48.826;15.176;2023-03-29T03:51:16;15.20;63.90
37794;DHT22;23632;48.826;15.176;2023-03-29T03:53:44;15.20;64.00
37794;DHT22;23632;48.826;15.176;2023-03-29T03:56:11;15.20;64.90
37794;DHT22;23632;48.826;15.176;2023-03-29T03:58:57;15.30;64.10
37794;DHT22;23632;48.826;15.176;2023-03-29T04:01:26;15.20;63.90
37794;DHT22;23632;48.826;15.176;2023-03-29T04:04:10;15.20;64.00
37794;DHT22;23632;48.826;15.176;2023-03-29T04:06:40;15.20;64.00
37794;DHT22;23632;48.826;15.176;2023-03-29T04:09:30;15.10;64.00
37794;DHT22;23632;48.826;15.176;2023-03-29T04:12:21;15.20;64.00
37794;DHT22;23632;48.826;15.176;2023-03-29T04:14:49;15.20;64.00
37794;DHT22;23632;48.826;15.176;2023-03-29T04:17:21;15.20;64.00
37794;DHT22;23632;48.826;15.176;2023-03-29T04:20:11;15.10;64.00
37794;DHT22;23632;48.826;15.176;2023-03-29T04:22:40;15.20;64.10
37794;DHT22;23632;48.826;15.176;2023-03-29T04:25:09;15.10;64.00
37794;DHT22;23632;48.826;15.176;2023-03-29T04:27:47;15.20;64.20
37794;DHT22;23632;48.826;15.176;2023-03-29T04:30:34;15.10;64.00
37794;DHT22;23632;48.826;15.176;2023-03-29T04:33:11;15.10;64.00
37794;DHT22;23632;48.826;15.176;2023-03-29T04:35:42;15.10;64.00
37794;DHT22;23632;48.826;15.176;2023-03-29T04:38:13;15.10;64.00
37794;DHT22;23632;48.826;15.176;2023-03-29T04:40:42;15.10;64.10
37794;DHT22;23632;48.826;15.176;2023-03-29T04:43:22;15.10;64.10
37794;DHT22;23632;48.826;15.176;2023-03-29T04:45:59;15.10;64.10
37794;DHT22;23632;48.826;15.176;2023-03-29T04:48:58;15.10;64.10
37794;DHT22;23632;48.826;15.176;2023-03-29T04:51:35;15.10;64.10
37794;DHT22;23632;48.826;15.176;2023-03-29T04:54:03;15.10;64.00
37794;DHT22;23632;48.826;15.176;2023-03-29T04:56:44;15.10;64.10
37794;DHT22;23632;48.826;15.176;2023-03-29T04:59:33;15.10;64.10
37794;DHT22;23632;48.826;15.176;2023-03-29T05:02:05;15.10;64.10
37794;DHT22;23632;48.826;15.176;2023-03-29T05:04:34;15.10;64.10
37794;DHT22;23632;48.826;15.176;2023-03-29T05:07:07;15.10;64.20
37794;DHT22;23632;48.826;15.176;2023-03-29T05:09:34;15.10;64.20
37794;DHT22;23632;48.826;15.176;2023-03-29T05:12:03;15.10;64.20
37794;DHT22;23632;48.826;15.176;2023-03-29T05:14:43;15.00;64.10
37794;DHT22;23632;48.826;15.176;2023-03-29T05:17:10;15.10;64.20
37794;DHT22;23632;48.826;15.176;2023-03-29T05:19:38;15.10;64.20
37794;DHT22;23632;48.826;15.176;2023-03-29T05:22:06;15.10;64.20
37794;DHT22;23632;48.826;15.176;2023-03-29T05:24:35;15.10;64.30
37794;DHT22;23632;48.826;15.176;2023-03-29T05:27:09;15.10;64.20
37794;DHT22;23632;48.826;15.176;2023-03-29T05:29:38;15.10;64.30
37794;DHT22;23632;48.826;15.176;2023-03-29T05:32:20;15.00;64.20
37794;DHT22;23632;48.826;15.176;2023-03-29T05:34:48;15.10;64.30
37794;DHT22;23632;48.826;15.176;2023-03-29T05:37:15;15.10;64.30
37794;DHT22;23632;48.826;15.176;2023-03-29T05:39:51;15.10;64.30
37794;DHT22;23632;48.826;15.176;2023-03-29T05:42:31;15.10;64.30
37794;DHT22;23632;48.826;15.176;2023-03-29T05:45:05;15.10;64.30
37794;DHT22;23632;48.826;15.176;2023-03-29T05:47:33;15.10;64.30
37794;DHT22;23632;48.826;15.176;2023-03-29T05:50:00;15.10;64.30
37794;DHT22;23632;48.826;15.176;2023-03-29T05:52:27;15.00;64.20
37794;DHT22;23632;48.826;15.176;2023-03-29T05:54:55;15.10;64.30
37794;DHT22;23632;48.826;15.176;2023-03-29T05:57:22;15.10;64.30
37794;DHT22;23632;48.826;15.176;2023-03-29T05:59:49;15.10;64.30
37794;DHT22;23632;48.826;15.176;2023-03-29T06:02:17;15.10;64.30
37794;DHT22;23632;48.826;15.176;2023-03-29T06:04:49;15.10;64.30
37794;DHT22;23632;48.826;15.176;2023-03-29T06:07:23;15.10;64.30
37794;DHT22;23632;48.826;15.176;2023-03-29T06:10:14;15.10;64.30
37794;DHT22;23632;48.826;15.176;2023-03-29T06:12:46;15.10;64.30
37794;DHT22;23632;48.826;15.176;2023-03-29T06:15:16;15.10;64.30
37794;DHT22;23632;48.826;15.176;2023-03-29T06:17:56;15.10;64.30
37794;DHT22;23632;48.826;15.176;2023-03-29T06:20:23;15.10;64.30
37794;DHT22;23632;48.826;15.176;2023-03-29T06:22:57;15.10;64.30
37794;DHT22;23632;48.826;15.176;2023-03-29T06:25:25;15.10;64.30
37794;DHT22;23632;48.826;15.176;2023-03-29T06:27:52;15.10;64.30
37794;DHT22;23632;48.826;15.176;2023-03-29T06:30:19;15.10;64.30
37794;DHT22;23632;48.826;15.176;2023-03-29T06:32:50;15.10;64.30
37794;DHT22;23632;48.826;15.176;2023-03-29T06:35:50;15.10;64.30
37794;DHT22;23632;48.826;15.176;2023-03-29T06:38:24;15.10;64.30
37794;DHT22;23632;48.826;15.176;2023-03-29T06:41:05;15.10;64.30
37794;DHT22;23632;48.826;15.176;2023-03-29T06:44:12;15.10;64.30
37794;DHT22;23632;48.826;15.176;2023-03-29T06:46:53;15.10;65.20
37794;DHT22;23632;48.826;15.176;2023-03-29T06:49:22;15.20;64.30
37794;DHT22;23632;48.826;15.176;2023-03-29T06:52:21;15.20;64.30
37794;DHT22;23632;48.826;15.176;2023-03-29T06:54:49;15.10;64.20
37794;DHT22;23632;48.826;15.176;2023-03-29T06:57:17;15.10;64.20
37794;DHT22;23632;48.826;15.176;2023-03-29T06:59:44;15.10;64.30
37794;DHT22;23632;48.826;15.176;2023-03-29T07:02:22;15.20;64.30
37794;DHT22;23632;48.826;15.176;2023-03-29T07:04:53;15.20;64.40
37794;DHT22;23632;48.826;15.176;2023-03-29T07:07:26;15.20;64.30
37794;DHT22;23632;48.826;15.176;2023-03-29T07:10:13;15.20;64.30
37794;DHT22;23632;48.826;15.176;2023-03-29T07:13:16;15.20;64.40
37794;DHT22;23632;48.826;15.176;2023-03-29T07:15:44;15.20;64.30
37794;DHT22;23632;48.826;15.176;2023-03-29T07:18:29;15.20;64.30
37794;DHT22;23632;48.826;15.176;2023-03-29T07:20:56;15.20;64.30
37794;DHT22;23632;48.826;15.176;2023-03-29T07:23:23;15.20;64.40
37794;DHT22;23632;48.826;15.176;2023-03-29T07:25:51;15.20;64.30
37794;DHT22;23632;48.826;15.176;2023-03-29T07:28:18;15.20;64.30
37794;DHT22;23632;48.826;15.176;2023-03-29T07:30:46;15.20;64.30
37794;DHT22;23632;48.826;15.176;2023-03-29T07:33:19;15.30;64.40
37794;DHT22;23632;48.826;15.176;2023-03-29T07:35:56;15.20;64.30
37794;DHT22;23632;48.826;15.176;2023-03-29T07:38:25;15.30;64.40
37794;DHT22;23632;48.826;15.176;2023-03-29T07:41:03;15.20;64.30
37794;DHT22;23632;48.826;15.176;2023-03-29T07:43:38;15.30;64.40
37794;DHT22;23632;48.826;15.176;2023-03-29T07:46:06;15.30;64.40
37794;DHT22;23632;48.826;15.176;2023-03-29T07:48:36;15.30;64.40
37794;DHT22;23632;48.826;15.176;2023-03-29T07:51:06;15.30;64.40
37794;DHT22;23632;48.826;15.176;2023-03-29T07:53:44;15.30;64.30
37794;DHT22;23632;48.826;15.176;2023-03-29T07:56:29;15.30;64.30
37794;DHT22;23632;48.826;15.176;2023-03-29T07:59:11;15.30;65.20
37794;DHT22;23632;48.826;15.176;2023-03-29T08:01:41;15.30;64.30
37794;DHT22;23632;48.826;15.176;2023-03-29T08:04:31;15.30;64.30
37794;DHT22;23632;48.826;15.176;2023-03-29T08:07:14;15.40;64.40
37794;DHT22;23632;48.826;15.176;2023-03-29T08:10:03;15.40;64.30
37794;DHT22;23632;48.826;15.176;2023-03-29T08:12:47;15.40;64.30
37794;DHT22;23632;48.826;15.176;2023-03-29T08:15:18;15.40;64.30
37794;DHT22;23632;48.826;15.176;2023-03-29T08:17:45;15.40;64.30
37794;DHT22;23632;48.826;15.176;2023-03-29T08:20:13;15.40;64.30
37794;DHT22;23632;48.826;15.176;2023-03-29T08:22:46;15.40;64.30
37794;DHT22;23632;48.826;15.176;2023-03-29T08:25:40;15.40;64.30
37794;DHT22;23632;48.826;15.176;2023-03-29T08:28:09;15.50;65.30
37794;DHT22;23632;48.826;15.176;2023-03-29T08:30:43;15.50;64.30
37794;DHT22;23632;48.826;15.176;2023-03-29T08:33:11;15.50;64.30
37794;DHT22;23632;48.826;15.176;2023-03-29T08:35:40;15.50;64.30
37794;DHT22;23632;48.826;15.176;2023-03-29T08:38:29;15.50;64.30
37794;DHT22;23632;48.826;15.176;2023-03-29T08:40:56;15.50;64.30
37794;DHT22;23632;48.826;15.176;2023-03-29T08:43:45;15.50;64.30
37794;DHT22;23632;48.826;15.176;2023-03-29T08:46:39;15.60;64.40
37794;DHT22;23632;48.826;15.176;2023-03-29T08:49:23;15.60;64.30
37794;DHT22;23632;48.826;15.176;2023-03-29T08:51:56;15.60;64.30
37794;DHT22;23632;48.826;15.176;2023-03-29T08:54:45;15.60;64.20
37794;DHT22;23632;48.826;15.176;2023-03-29T08:57:51;15.60;64.20
37794;DHT22;23632;48.826;15.176;2023-03-29T09:01:03;15.60;64.20
37794;DHT22;23632;48.826;15.176;2023-03-29T09:06:49;15.60;64.20
37794;DHT22;23632;48.826;15.176;2023-03-29T09:09:33;15.70;64.20
37794;DHT22;23632;48.826;15.176;2023-03-29T09:12:34;15.60;64.00
37794;DHT22;23632;48.826;15.176;2023-03-29T09:15:27;15.70;64.10
37794;DHT22;23632;48.826;15.176;2023-03-29T09:18:31;15.60;64.00
37794;DHT22;23632;48.826;15.176;2023-03-29T09:24:13;15.70;64.10
37794;DHT22;23632;48.826;15.176;2023-03-29T09:27:47;15.70;64.00
37794;DHT22;23632;48.826;15.176;2023-03-29T09:30:40;15.70;64.10
37794;DHT22;23632;48.826;15.176;2023-03-29T09:39:13;15.70;64.10
37794;DHT22;23632;48.826;15.176;2023-03-29T09:41:51;15.70;64.10
37794;DHT22;23632;48.826;15.176;2023-03-29T09:44:43;15.70;64.00
37794;DHT22;23632;48.826;15.176;2023-03-29T09:47:28;15.70;64.00
37794;DHT22;23632;48.826;15.176;2023-03-29T09:50:25;15.70;64.10
37794;DHT22;23632;48.826;15.176;2023-03-29T09:53:01;15.70;64.00
37794;DHT22;23632;48.826;15.176;2023-03-29T09:55:32;15.80;64.20
37794;DHT22;23632;48.826;15.176;2023-03-29T09:58:24;15.80;64.10
37794;DHT22;23632;48.826;15.176;2023-03-29T10:00:58;15.80;64.10
37794;DHT22;23632;48.826;15.176;2023-03-29T10:03:28;15.80;64.10
37794;DHT22;23632;48.826;15.176;2023-03-29T10:06:08;15.80;64.00
37794;DHT22;23632;48.826;15.176;2023-03-29T10:08:46;15.80;64.00
37794;DHT22;23632;48.826;15.176;2023-03-29T10:11:32;15.80;64.00
37794;DHT22;23632;48.826;15.176;2023-03-29T10:14:04;15.80;63.90
37794;DHT22;23632;48.826;15.176;2023-03-29T10:16:39;15.80;63.90
37794;DHT22;23632;48.826;15.176;2023-03-29T10:19:36;15.90;64.10
37794;DHT22;23632;48.826;15.176;2023-03-29T10:22:06;15.90;64.10
37794;DHT22;23632;48.826;15.176;2023-03-29T10:24:38;15.90;64.00
37794;DHT22;23632;48.826;15.176;2023-03-29T10:27:09;15.90;64.10
37794;DHT22;23632;48.826;15.176;2023-03-29T10:29:41;15.90;64.00
37794;DHT22;23632;48.826;15.176;2023-03-29T10:34:50;15.90;64.00
37794;DHT22;23632;48.826;15.176;2023-03-29T10:37:18;16.00;64.10
37794;DHT22;23632;48.826;15.176;2023-03-29T10:39:48;16.00;64.00
37794;DHT22;23632;48.826;15.176;2023-03-29T10:42:18;16.00;64.00
37794;DHT22;23632;48.826;15.176;2023-03-29T10:44:54;16.00;64.00
37794;DHT22;23632;48.826;15.176;2023-03-29T10:47:23;16.00;63.90
37794;DHT22;23632;48.826;15.176;2023-03-29T10:49:53;16.00;63.90
37794;DHT22;23632;48.826;15.176;2023-03-29T10:52:24;16.00;64.00
37794;DHT22;23632;48.826;15.176;2023-03-29T10:54:54;16.00;63.90
37794;DHT22;23632;48.826;15.176;2023-03-29T10:57:54;16.00;63.90
37794;DHT22;23632;48.826;15.176;2023-03-29T11:00:48;16.10;63.90
37794;DHT22;23632;48.826;15.176;2023-03-29T11:18:39;16.10;63.90
37794;DHT22;23632;48.826;15.176;2023-03-29T11:42:03;16.10;63.80
37794;DHT22;23632;48.826;15.176;2023-03-29T11:44:35;16.10;63.90
37794;DHT22;23632;48.826;15.176;2023-03-29T11:47:17;16.20;64.00
37794;DHT22;23632;48.826;15.176;2023-03-29T11:49:53;16.20;63.90
37794;DHT22;23632;48.826;15.176;2023-03-29T11:52:39;16.20;63.90
37794;DHT22;23632;48.826;15.176;2023-03-29T11:55:22;16.20;63.90
37794;DHT22;23632;48.826;15.176;2023-03-29T12:01:09;16.30;63.90
37794;DHT22;23632;48.826;15.176;2023-03-29T12:03:54;16.40;64.00
37794;DHT22;23632;48.826;15.176;2023-03-29T12:06:45;16.40;64.30
37794;DHT22;23632;48.826;15.176;2023-03-29T12:09:28;16.40;63.90
37794;DHT22;23632;48.826;15.176;2023-03-29T12:12:14;16.50;64.00
37794;DHT22;23632;48.826;15.176;2023-03-29T12:15:15;16.50;63.90
37794;DHT22;23632;48.826;15.176;2023-03-29T12:18:01;16.50;63.90
37794;DHT22;23632;48.826;15.176;2023-03-29T12:20:36;16.60;63.90
37794;DHT22;23632;48.826;15.176;2023-03-29T12:23:11;16.60;64.00
37794;DHT22;23632;48.826;15.176;2023-03-29T12:25:56;16.60;63.90
37794;DHT22;23632;48.826;15.176;2023-03-29T12:38:14;16.70;63.80
37794;DHT22;23632;48.826;15.176;2023-03-29T12:41:19;16.70;63.80
37794;DHT22;23632;48.826;15.176;2023-03-29T12:44:21;16.80;63.80
37794;DHT22;23632;48.826;15.176;2023-03-29T12:46:57;16.80;63.80
37794;DHT22;23632;48.826;15.176;2023-03-29T12:49:36;16.80;63.70
37794;DHT22;23632;48.826;15.176;2023-03-29T12:52:21;16.80;63.50
37794;DHT22;23632;48.826;15.176;2023-03-29T12:55:00;16.90;63.60
37794;DHT22;23632;48.826;15.176;2023-03-29T12:57:42;16.90;63.60
37794;DHT22;23632;48.826;15.176;2023-03-29T13:05:01;16.90;63.50
37794;DHT22;23632;48.826;15.176;2023-03-29T13:07:43;16.90;63.50
37794;DHT22;23632;48.826;15.176;2023-03-29T13:10:39;16.90;63.50
37794;DHT22;23632;48.826;15.176;2023-03-29T13:13:15;16.90;63.50
37794;DHT22;23632;48.826;15.176;2023-03-29T13:15:44;16.90;64.40
37794;DHT22;23632;48.826;15.176;2023-03-29T13:18:36;16.90;63.50
37794;DHT22;23632;48.826;15.176;2023-03-29T13:21:17;16.90;63.50
37794;DHT22;23632;48.826;15.176;2023-03-29T13:24:00;16.90;63.40
37794;DHT22;23632;48.826;15.176;2023-03-29T13:32:49;17.00;63.50
37794;DHT22;23632;48.826;15.176;2023-03-29T13:35:58;17.00;63.60
37794;DHT22;23632;48.826;15.176;2023-03-29T13:38:46;17.00;63.50
37794;DHT22;23632;48.826;15.176;2023-03-29T13:41:44;17.00;63.40
37794;DHT22;23632;48.826;15.176;2023-03-29T13:44:42;17.10;63.50
37794;DHT22;23632;48.826;15.176;2023-03-29T13:47:35;17.10;63.50
37794;DHT22;23632;48.826;15.176;2023-03-29T13:55:53;17.20;63.40
37794;DHT22;23632;48.826;15.176;2023-03-29T13:58:31;17.20;63.40
37794;DHT22;23632;48.826;15.176;2023-03-29T14:01:40;17.20;63.30
37794;DHT22;23632;48.826;15.176;2023-03-29T14:04:16;17.20;63.20
37794;DHT22;23632;48.826;15.176;2023-03-29T14:06:51;17.20;63.20
37794;DHT22;23632;48.826;15.176;2023-03-29T14:09:24;17.20;63.20
37794;DHT22;23632;48.826;15.176;2023-03-29T14:11:59;17.20;63.10
37794;DHT22;23632;48.826;15.176;2023-03-29T14:14:29;17.30;63.30
37794;DHT22;23632;48.826;15.176;2023-03-29T14:16:59;17.20;63.10
37794;DHT22;23632;48.826;15.176;2023-03-29T14:19:33;17.30;63.20
37794;DHT22;23632;48.826;15.176;2023-03-29T14:22:07;17.30;63.10
37794;DHT22;23632;48.826;15.176;2023-03-29T14:24:38;17.30;63.10
37794;DHT22;23632;48.826;15.176;2023-03-29T14:27:09;17.30;63.10
37794;DHT22;23632;48.826;15.176;2023-03-29T14:29:37;17.30;63.10
37794;DHT22;23632;48.826;15.176;2023-03-29T14:32:15;17.30;63.00
37794;DHT22;23632;48.826;15.176;2023-03-29T14:34:48;17.30;62.90
37794;DHT22;23632;48.826;15.176;2023-03-29T14:37:42;17.30;63.00
37794;DHT22;23632;48.826;15.176;2023-03-29T14:40:16;17.30;63.00
37794;DHT22;23632;48.826;15.176;2023-03-29T14:42:46;17.30;63.00
37794;DHT22;23632;48.826;15.176;2023-03-29T14:45:16;17.30;63.00
37794;DHT22;23632;48.826;15.176;2023-03-29T14:47:44;17.40;63.10
37794;DHT22;23632;48.826;15.176;2023-03-29T14:50:20;17.40;63.10
37794;DHT22;23632;48.826;15.176;2023-03-29T14:52:50;17.40;63.10
37794;DHT22;23632;48.826;15.176;2023-03-29T14:55:18;17.40;63.20
37794;DHT22;23632;48.826;15.176;2023-03-29T14:57:52;17.40;63.20
37794;DHT22;23632;48.826;15.176;2023-03-29T15:00:40;17.40;63.20
37794;DHT22;23632;48.826;15.176;2023-03-29T15:03:14;17.50;63.20
37794;DHT22;23632;48.826;15.176;2023-03-29T15:05:47;17.60;63.40
37794;DHT22;23632;48.826;15.176;2023-03-29T15:08:43;17.60;63.20
37794;DHT22;23632;48.826;15.176;2023-03-29T15:11:28;17.70;63.20
37794;DHT22;23632;48.826;15.176;2023-03-29T15:14:03;17.70;63.30
37794;DHT22;23632;48.826;15.176;2023-03-29T15:16:39;17.70;63.00
37794;DHT22;23632;48.826;15.176;2023-03-29T15:19:17;17.80;63.00
37794;DHT22;23632;48.826;15.176;2023-03-29T15:21:49;17.80;62.90
37794;DHT22;23632;48.826;15.176;2023-03-29T15:24:46;17.80;62.90
37794;DHT22;23632;48.826;15.176;2023-03-29T15:27:16;17.80;62.80
37794;DHT22;23632;48.826;15.176;2023-03-29T15:29:45;17.90;62.80
37794;DHT22;23632;48.826;15.176;2023-03-29T15:32:21;17.90;62.70
37794;DHT22;23632;48.826;15.176;2023-03-29T15:35:00;17.90;62.60
37794;DHT22;23632;48.826;15.176;2023-03-29T15:37:30;17.90;62.50
37794;DHT22;23632;48.826;15.176;2023-03-29T15:39:58;17.90;62.50
37794;DHT22;23632;48.826;15.176;2023-03-29T15:42:25;17.90;62.50
37794;DHT22;23632;48.826;15.176;2023-03-29T15:44:54;17.90;62.40
37794;DHT22;23632;48.826;15.176;2023-03-29T15:47:22;17.90;62.40
37794;DHT22;23632;48.826;15.176;2023-03-29T15:49:50;17.90;62.40
37794;DHT22;23632;48.826;15.176;2023-03-29T15:52:17;17.90;62.40
37794;DHT22;23632;48.826;15.176;2023-03-29T15:54:44;17.90;62.40
37794;DHT22;23632;48.826;15.176;2023-03-29T15:57:13;17.90;62.30
37794;DHT22;23632;48.826;15.176;2023-03-29T15:59:42;17.90;62.30
37794;DHT22;23632;48.826;15.176;2023-03-29T16:02:14;17.90;62.30
37794;DHT22;23632;48.826;15.176;2023-03-29T16:04:49;17.90;62.20
37794;DHT22;23632;48.826;15.176;2023-03-29T16:07:17;17.90;62.30
37794;DHT22;23632;48.826;15.176;2023-03-29T16:09:45;17.90;62.20
37794;DHT22;23632;48.826;15.176;2023-03-29T16:12:13;17.90;62.20
37794;DHT22;23632;48.826;15.176;2023-03-29T16:14:42;17.90;62.20
37794;DHT22;23632;48.826;15.176;2023-03-29T16:17:09;17.90;62.20
37794;DHT22;23632;48.826;15.176;2023-03-29T16:19:36;17.90;62.20
37794;DHT22;23632;48.826;15.176;2023-03-29T16:22:04;17.80;62.10
37794;DHT22;23632;48.826;15.176;2023-03-29T16:24:33;17.80;62.10
37794;DHT22;23632;48.826;15.176;2023-03-29T16:27:01;17.80;62.10
37794;DHT22;23632;48.826;15.176;2023-03-29T16:29:29;17.80;62.10
37794;DHT22;23632;48.826;15.176;2023-03-29T16:31:57;17.80;62.10
37794;DHT22;23632;48.826;15.176;2023-03-29T16:34:24;17.80;62.00
37794;DHT22;23632;48.826;15.176;2023-03-29T16:36:52;17.80;62.00
37794;DHT22;23632;48.826;15.176;2023-03-29T16:39:19;17.80;61.80
37794;DHT22;23632;48.826;15.176;2023-03-29T16:41:47;17.80;61.90
37794;DHT22;23632;48.826;15.176;2023-03-29T16:44:17;17.80;61.90
37794;DHT22;23632;48.826;15.176;2023-03-29T16:46:50;17.80;61.80
37794;DHT22;23632;48.826;15.176;2023-03-29T16:49:20;17.70;61.70
37794;DHT22;23632;48.826;15.176;2023-03-29T16:51:47;17.80;61.80
37794;DHT22;23632;48.826;15.176;2023-03-29T16:54:15;17.70;62.70
37794;DHT22;23632;48.826;15.176;2023-03-29T16:56:43;17.80;62.70
37794;DHT22;23632;48.826;15.176;2023-03-29T16:59:10;17.70;61.70
37794;DHT22;23632;48.826;15.176;2023-03-29T17:01:37;17.70;61.70
37794;DHT22;23632;48.826;15.176;2023-03-29T17:04:06;17.70;61.70
37794;DHT22;23632;48.826;15.176;2023-03-29T17:06:34;17.70;61.70
37794;DHT22;23632;48.826;15.176;2023-03-29T17:09:02;17.70;61.70
37794;DHT22;23632;48.826;15.176;2023-03-29T17:11:30;17.70;61.70
37794;DHT22;23632;48.826;15.176;2023-03-29T17:13:58;17.70;61.70
37794;DHT22;23632;48.826;15.176;2023-03-29T17:16:25;17.70;61.70
37794;DHT22;23632;48.826;15.176;2023-03-29T17:18:56;17.70;61.70
37794;DHT22;23632;48.826;15.176;2023-03-29T17:21:26;17.70;61.70
37794;DHT22;23632;48.826;15.176;2023-03-29T17:23:54;17.70;61.70
37794;DHT22;23632;48.826;15.176;2023-03-29T17:26:22;17.60;61.60
37794;DHT22;23632;48.826;15.176;2023-03-29T17:28:49;17.70;61.70
37794;DHT22;23632;48.826;15.176;2023-03-29T17:31:16;17.70;61.70
37794;DHT22;23632;48.826;15.176;2023-03-29T17:33:45;17.60;61.60
37794;DHT22;23632;48.826;15.176;2023-03-29T17:36:13;17.60;61.60
37794;DHT22;23632;48.826;15.176;2023-03-29T17:38:40;17.60;61.60
37794;DHT22;23632;48.826;15.176;2023-03-29T17:41:08;17.60;61.60
37794;DHT22;23632;48.826;15.176;2023-03-29T17:43:35;17.60;61.60
37794;DHT22;23632;48.826;15.176;2023-03-29T17:46:03;17.60;61.60
37794;DHT22;23632;48.826;15.176;2023-03-29T17:48:31;17.60;61.60
37794;DHT22;23632;48.826;15.176;2023-03-29T17:50:58;17.60;61.60
37794;DHT22;23632;48.826;15.176;2023-03-29T17:53:25;17.60;61.60